hero-logo

Top 15 Knowers of SU Suncor Energy Inc - 2017-07-20

Rank Fund Result (K)
1 Jarislowsky Fraser Ltd $2,018
2 Guardian Capital Lp $1,357
3 Sir Capital Management L P $1,195
4 Intact Investment Management Inc $1,150
5 Polar Capital Llp $1,125
6 Verition Fund Management Llc $562
7 Colony Group Llc $295
8 Tvr Capital Management Lp $188
9 Tiverton Asset Management Llc $176
10 Amf Pensionsforsakring Ab $149
11 Guggenheim Capital Llc $118
12 A R T Advisors Llc $102
13 Jane Street Group Llc $69
14 Neuburgh Advisers Llc $60
15 Qcm Cayman Ltd $48
Price Chart and News From Google Finance for SU Suncor Energy Inc
Owner Date Shares Change Price Change Result (K)
Acrospire Investment Management Llc 2017-03-31 500 $-1.94 $0
Ahl Partners Llp 2017-03-31 6,961 $-1.94 $-13
Amf Pensionsforsakring Ab 2017-03-31 -76,902 $-1.94 $149
Ancora Advisors Llc 2017-03-31 -200 $-1.94 $0
Aperio Group Llc 2017-03-31 30,130 $-1.94 $-58
Archford Capital Strategies Llc 2017-03-31 862 $-1.94 $-1
A R T Advisors Llc 2017-03-31 -53,000 $-1.94 $102
Assetmark Inc 2017-03-31 30 $-1.94 $0
Aua Capital Management Llc 2017-03-31 0 $-1.94 $0
Bahl Gaynor Inc 2017-03-31 -7,211 $-1.94 $13
Balentine Llc 2017-03-31 0 $-1.94 $0
Blair William Co Il 2017-03-31 -16,003 $-1.94 $31
Bokf Na 2017-03-31 1,789 $-1.94 $-3
Botty Investors Llc 2017-03-31 1,757 $-1.94 $-3
Brandywine Trust Co 2017-03-31 0 $-1.94 $0
Brinker Capital Inc 2017-03-31 31,850 $-1.94 $-61
Brown Brothers Harriman Co 2017-03-31 -559 $-1.94 $1
Canandaigua National Bank Trust Co 2017-03-31 31,618 $-1.94 $-61
Capital Guardian Trust Co 2017-03-31 0 $-1.94 $0
Capital Innovations Llc 2017-03-31 11,515 $-1.94 $-22
Catamount Wealth Management 2017-03-31 0 $-1.94 $0
Cetera Advisors Llc 2017-03-31 4 $-1.94 $0
Chartwell Investment Partners Llc 2017-03-31 -20,500 $-1.94 $39
Colony Group Llc 2017-03-31 -152,313 $-1.94 $295
Compagnie Lombard Odier Scma 2017-03-31 33,165 $-1.94 $-64
Corecommodity Management Llc 2017-03-31 7,610 $-1.94 $-14
Cortland Advisers Llc 2017-03-31 -322 $-1.94 $0
Credit Capital Investments Llc 2017-03-31 0 $-1.94 $0
Css Llc Il 2017-03-31 0 $-1.94 $0
Cushing Asset Management Lp 2017-03-31 81,658 $-1.94 $-158
D A Davidson Co 2017-03-31 -1,059 $-1.94 $2
Dixon Hubard Feinour Brown Inc Va 2017-03-31 7,600 $-1.94 $-14
Eagle Global Advisors Llc 2017-03-31 -7,308 $-1.94 $14
Edmond De Rothschild Holding S A 2017-03-31 28,948 $-1.94 $-56
Envestnet Asset Management Inc 2017-03-31 -1,647 $-1.94 $3
Fairfield Bush Co 2017-03-31 -7,090 $-1.94 $13
Fdx Advisors Inc 2017-03-31 1,447 $-1.94 $-2
Fiera Capital Corp 2017-03-31 909,675 $-1.94 $-1,764
First Republic Investment Management Inc 2017-03-31 13,503 $-1.94 $-26
Focused Wealth Management Inc 2017-03-31 1 $-1.94 $0
Forester Capital Management Ltd 2017-03-31 0 $-1.94 $0
Gagnon Advisors Llc 2017-03-31 0 $-1.94 $0
Gagnon Securities Llc 2017-03-31 -2,434 $-1.94 $4
Glassman Wealth Services 2017-03-31 222 $-1.94 $0
Glen Harbor Capital Management Llc 2017-03-31 -14,624 $-1.94 $28
Gotham Asset Management Llc 2017-03-31 150,796 $-1.94 $-292
Gratus Capital Llc 2017-03-31 -800 $-1.94 $1
Greenwich Investment Management Inc 2017-03-31 -29 $-1.94 $0
Greystone Managed Investments Inc 2017-03-31 1,783,903 $-1.94 $-3,460
Group One Trading L P 2017-03-31 108 $-1.94 $0
Gsa Capital Partners Llp 2017-03-31 11,803 $-1.94 $-22
Guardian Capital Advisors Lp 2017-03-31 8,218 $-1.94 $-15
Guardian Capital Lp 2017-03-31 -699,820 $-1.94 $1,357
Guggenheim Capital Llc 2017-03-31 -61,267 $-1.94 $118
Guinness Asset Management Ltd 2017-03-31 31,000 $-1.94 $-60
Guinness Atkinson Asset Management Inc 2017-03-31 -12,000 $-1.94 $23
Halsey Associates Inc Ct 2017-03-31 -600 $-1.94 $1
Hanson Doremus Investment Management 2017-03-31 -1,340 $-1.94 $2
Highlander Capital Management Llc 2017-03-31 -1,000 $-1.94 $1
Hollow Brook Wealth Management Llc 2017-03-31 -8,360 $-1.94 $16
Horizon Kinetics Llc 2017-03-31 500 $-1.94 $0
Hutchin Hill Capital Lp 2017-03-31 9,600 $-1.94 $-18
Ibex Wealth Advisors 2017-03-31 -241 $-1.94 $0
Ifp Advisors Inc 2017-03-31 -2 $-1.94 $0
Iht Wealth Management Llc 2017-03-31 0 $-1.94 $0
Intact Investment Management Inc 2017-03-31 -593,088 $-1.94 $1,150
Intellectus Partners Llc 2017-03-31 0 $-1.94 $0
Jane Street Group Llc 2017-03-31 -35,951 $-1.94 $69
Jarislowsky Fraser Ltd 2017-03-31 -1,040,539 $-1.94 $2,018
Krilogy Financial Llc 2017-03-31 0 $-1.94 $0
Ladenburg Thalmann Financial Services Inc 2017-03-31 2,685 $-1.94 $-5
Laurel Wealth Advisors Inc 2017-03-31 -222 $-1.94 $0
Lee Financial Corp 2017-03-31 0 $-1.94 $0
Long Road Investment Counsel Llc 2017-03-31 0 $-1.94 $0
Lyrical Asset Management Lp 2017-03-31 387,218 $-1.94 $-751
Mckinley Capital Management Llc Delaware 2017-03-31 259,000 $-1.94 $-502
Neuburgh Advisers Llc 2017-03-31 -31,076 $-1.94 $60
Northwestern Mutual Wealth Management Co 2017-03-31 -2,856 $-1.94 $5
Paloma Partners Management Co 2017-03-31 8,973 $-1.94 $-17
Perigon Wealth Management Llc 2017-03-31 -651 $-1.94 $1
Polar Capital Llp 2017-03-31 -580,348 $-1.94 $1,125
Proficio Capital Partners Llc 2017-03-31 1,724 $-1.94 $-3
Prospector Partners Llc 2017-03-31 -700 $-1.94 $1
Qcm Cayman Ltd 2017-03-31 -25,073 $-1.94 $48
Raymond James Associates 2017-03-31 50,195 $-1.94 $-97
Riverhead Capital Management Llc 2017-03-31 0 $-1.94 $0
Salem Investment Counselors Inc 2017-03-31 0 $-1.94 $0
Scotia Capital Inc 2017-03-31 72,046 $-1.94 $-139
Seven Eight Capital Lp 2017-03-31 -3,200 $-1.94 $6
Sir Capital Management L P 2017-03-31 -616,087 $-1.94 $1,195
Somerville Kurt F 2017-03-31 0 $-1.94 $0
Stifel Financial Corp 2017-03-31 3,195 $-1.94 $-6
Tiverton Asset Management Llc 2017-03-31 -91,030 $-1.94 $176
Tvr Capital Management Lp 2017-03-31 -97,200 $-1.94 $188
Tyers Asset Management Llc 2017-03-31 -20,108 $-1.94 $39
United Capital Financial Advisers Llc 2017-03-31 1,605 $-1.94 $-3
Verition Fund Management Llc 2017-03-31 -290,103 $-1.94 $562
Voloridge Investment Management Llc 2017-03-31 -15,321 $-1.94 $29
Wasatch Advisors Inc 2017-03-31 3,000 $-1.94 $-5
Wunderlich Capital Managemnt 2017-03-31 356 $-1.94 $0
Yorkbridge Wealth Partners Llc 2017-03-31 42 $-1.94 $0